createdAt,value
2022-12-25T00:00:55.099Z,284.05
2022-12-25T00:03:22.163Z,276.48
2022-12-25T00:05:49.205Z,278.95
2022-12-25T00:08:16.004Z,278.48
2022-12-25T00:10:45.288Z,256.50
2022-12-25T00:13:12.666Z,227.82
2022-12-25T00:15:41.592Z,209.85
2022-12-25T00:18:08.498Z,223.95
2022-12-25T00:20:35.493Z,189.43
2022-12-25T00:23:02.300Z,191.75
2022-12-25T00:25:29.248Z,163.45
2022-12-25T00:27:56.033Z,125.25
2022-12-25T00:30:22.892Z,148.50
2022-12-25T00:32:49.714Z,149.18
2022-12-25T00:35:16.542Z,136.38
2022-12-25T00:37:43.353Z,131.82
2022-12-25T00:40:10.552Z,136.50
2022-12-25T00:42:37.373Z,134.70
2022-12-25T00:45:05.872Z,107.50
2022-12-25T00:47:33.107Z,128.75
2022-12-25T00:49:59.990Z,122.38
2022-12-25T00:52:26.797Z,162.23
2022-12-25T00:54:53.632Z,159.80
2022-12-25T00:57:20.475Z,155.00
2022-12-25T00:59:47.326Z,195.57
2022-12-25T01:02:23.524Z,181.35
2022-12-25T01:04:57.193Z,158.80
2022-12-25T01:07:25.160Z,154.85
2022-12-25T01:10:10.678Z,169.70
2022-12-25T01:12:40.261Z,152.52
2022-12-25T01:15:07.686Z,106.78
2022-12-25T01:17:34.819Z,133.88
2022-12-25T01:20:01.613Z,115.85
2022-12-25T01:22:28.575Z,103.70
2022-12-25T01:24:55.312Z,114.90
2022-12-25T01:27:22.179Z,137.02
2022-12-25T01:29:48.973Z,154.65
2022-12-25T01:32:15.797Z,150.40
2022-12-25T01:34:42.674Z,150.68
2022-12-25T01:37:10.178Z,159.30
2022-12-25T01:39:37.118Z,164.85
2022-12-25T01:42:03.987Z,181.35
2022-12-25T01:44:36.994Z,113.50
2022-12-25T01:47:04.480Z,125.10
2022-12-25T01:49:31.497Z,124.45
2022-12-25T01:52:10.751Z,191.73
2022-12-25T01:55:00.047Z,233.32
2022-12-25T01:57:29.182Z,183.75
2022-12-25T01:59:56.481Z,136.13
2022-12-25T02:02:23.450Z,109.32
2022-12-25T02:05:12.738Z,173.52
2022-12-25T02:07:41.359Z,124.90
2022-12-25T02:10:11.513Z,117.93
2022-12-25T02:12:38.336Z,185.73
2022-12-25T02:15:12.411Z,188.77
2022-12-25T02:17:55.100Z,165.50
2022-12-25T02:20:47.765Z,97.43
2022-12-25T02:23:52.129Z,160.05
2022-12-25T02:26:55.129Z,69.95
2022-12-25T02:29:24.419Z,96.03
2022-12-25T02:31:59.560Z,179.63
2022-12-25T02:34:36.468Z,104.03
2022-12-25T02:37:16.759Z,105.45
2022-12-25T02:40:00.272Z,147.43
2022-12-25T02:43:13.013Z,123.60
2022-12-25T02:46:16.281Z,105.05
2022-12-25T02:49:08.080Z,150.30
2022-12-25T02:51:56.301Z,149.93
2022-12-25T02:54:45.694Z,133.02
2022-12-25T02:57:31.802Z,112.00
2022-12-25T03:00:18.103Z,145.57
2022-12-25T03:03:03.268Z,147.95
2022-12-25T03:05:48.801Z,136.98
2022-12-25T03:08:19.073Z,98.82
2022-12-25T03:11:06.202Z,136.88
2022-12-25T03:13:36.440Z,100.90
2022-12-25T03:16:21.688Z,109.03
2022-12-25T03:18:48.503Z,94.13
2022-12-25T03:21:33.732Z,78.20
2022-12-25T03:24:19.646Z,132.65
2022-12-25T03:26:55.635Z,145.02
2022-12-25T03:29:41.809Z,105.63
2022-12-25T03:32:33.483Z,140.20
2022-12-25T03:35:25.895Z,162.48
2022-12-25T03:38:31.820Z,132.40
2022-12-25T03:41:33.574Z,65.45
2022-12-25T03:44:22.430Z,121.65
2022-12-25T03:47:39.370Z,147.80
2022-12-25T03:50:33.784Z,124.20
2022-12-25T03:53:21.633Z,92.22
2022-12-25T03:56:07.219Z,119.13
2022-12-25T03:58:52.528Z,139.73
2022-12-25T04:01:38.032Z,92.05
2022-12-25T04:04:23.890Z,58.97
2022-12-25T04:07:09.261Z,65.43
2022-12-25T04:09:54.916Z,59.65
2022-12-25T04:12:40.478Z,51.28
2022-12-25T04:15:26.429Z,74.50
2022-12-25T04:18:11.655Z,67.00
2022-12-25T04:20:57.079Z,60.03
2022-12-25T04:23:42.569Z,48.85
2022-12-25T04:26:28.020Z,52.25
2022-12-25T04:29:13.488Z,88.95
2022-12-25T04:31:59.237Z,52.13
2022-12-25T04:34:44.712Z,61.53
2022-12-25T04:37:11.458Z,80.93
2022-12-25T04:39:38.265Z,113.57
2022-12-25T04:42:06.181Z,77.53
2022-12-25T04:44:33.037Z,132.45
2022-12-25T04:46:59.862Z,107.22
2022-12-25T04:49:26.811Z,127.82
2022-12-25T04:51:53.671Z,118.00
2022-12-25T04:54:20.520Z,111.63
2022-12-25T04:56:47.286Z,104.75
2022-12-25T04:59:14.141Z,136.05
2022-12-25T05:01:41.012Z,112.00
2022-12-25T05:04:07.868Z,93.53
2022-12-25T05:06:34.708Z,150.70
2022-12-25T05:09:01.468Z,124.75
2022-12-25T05:11:28.280Z,101.90
2022-12-25T05:13:55.030Z,115.95
2022-12-25T05:16:22.067Z,108.20
2022-12-25T05:18:49.881Z,79.45
2022-12-25T05:21:16.952Z,79.22
2022-12-25T05:23:48.676Z,95.43
2022-12-25T05:26:16.739Z,65.18
2022-12-25T05:28:43.651Z,68.43
2022-12-25T05:31:10.556Z,58.47
2022-12-25T05:33:37.463Z,57.75
2022-12-25T05:36:05.275Z,58.42
2022-12-25T05:38:32.077Z,119.50
2022-12-25T05:40:58.885Z,172.50
2022-12-25T05:43:26.161Z,75.32
2022-12-25T05:45:52.973Z,125.53
2022-12-25T05:48:19.810Z,86.72
2022-12-25T05:50:46.677Z,161.07
2022-12-25T05:53:14.176Z,192.13
2022-12-25T05:55:43.599Z,114.28
2022-12-25T05:58:10.888Z,81.22
2022-12-25T06:00:37.828Z,82.70
2022-12-25T06:03:04.793Z,120.03
2022-12-25T06:05:31.759Z,107.05
2022-12-25T06:07:58.553Z,89.63
2022-12-25T06:10:25.314Z,150.80
2022-12-25T06:12:52.109Z,68.50
2022-12-25T06:15:18.886Z,107.63
2022-12-25T06:17:45.627Z,82.75
2022-12-25T06:20:12.455Z,114.35
2022-12-25T06:22:39.242Z,130.23
2022-12-25T06:25:06.669Z,100.35
2022-12-25T06:27:33.445Z,53.38
2022-12-25T06:30:00.165Z,96.30
2022-12-25T06:32:26.893Z,177.10
2022-12-25T06:34:53.685Z,82.82
2022-12-25T06:37:20.471Z,126.10
2022-12-25T06:39:48.066Z,101.65
2022-12-25T06:42:14.842Z,121.15
2022-12-25T06:44:41.624Z,129.73
2022-12-25T06:47:08.453Z,105.88
2022-12-25T06:49:35.248Z,148.48
2022-12-25T06:52:01.963Z,155.50
2022-12-25T06:54:28.790Z,131.98
2022-12-25T06:56:55.605Z,123.32
2022-12-25T06:59:22.440Z,102.90
2022-12-25T07:01:55.957Z,121.78
2022-12-25T07:04:39.009Z,88.07
2022-12-25T07:07:09.286Z,101.15
2022-12-25T07:09:38.636Z,80.60
2022-12-25T07:12:21.222Z,83.70
2022-12-25T07:14:50.102Z,88.25
2022-12-25T07:17:17.659Z,85.97
2022-12-25T07:19:45.320Z,94.35
2022-12-25T07:22:13.046Z,111.22
2022-12-25T07:24:39.851Z,105.38
2022-12-25T07:27:06.715Z,66.25
2022-12-25T07:29:33.506Z,68.47
2022-12-25T07:32:00.360Z,54.22
2022-12-25T07:34:27.190Z,79.05
2022-12-25T07:36:55.061Z,107.38
2022-12-25T07:39:22.048Z,72.80
2022-12-25T07:41:48.907Z,72.43
2022-12-25T07:44:15.931Z,175.23
2022-12-25T07:46:42.955Z,75.90
2022-12-25T07:49:10.997Z,110.38
2022-12-25T07:51:39.053Z,98.60
2022-12-25T07:54:06.788Z,62.15
2022-12-25T07:56:33.520Z,75.38
2022-12-25T07:59:00.337Z,65.90
2022-12-25T08:01:27.882Z,33.20
2022-12-25T08:03:59.831Z,31.50
2022-12-25T08:06:29.870Z,29.00
2022-12-25T08:08:57.828Z,24.60
2022-12-25T08:11:24.698Z,26.55
2022-12-25T08:13:51.414Z,23.83
2022-12-25T08:16:18.240Z,28.48
2022-12-25T08:18:45.117Z,25.20
2022-12-25T08:21:13.433Z,31.42
2022-12-25T08:23:41.848Z,27.23
2022-12-25T08:26:09.353Z,34.97
2022-12-25T08:28:36.245Z,36.67
2022-12-25T08:31:17.658Z,41.15
2022-12-25T08:33:44.735Z,38.42
2022-12-25T08:36:11.926Z,36.20
2022-12-25T08:38:38.994Z,41.97
2022-12-25T08:41:06.036Z,29.08
2022-12-25T08:43:32.825Z,32.72
2022-12-25T08:45:59.676Z,28.77
2022-12-25T08:48:28.033Z,30.48
2022-12-25T08:50:54.976Z,30.52
2022-12-25T08:53:21.948Z,31.60
2022-12-25T08:55:48.862Z,32.58
2022-12-25T08:58:16.543Z,37.03
2022-12-25T09:00:43.730Z,32.58
2022-12-25T09:03:10.574Z,30.02
2022-12-25T09:05:37.629Z,29.73
2022-12-25T09:08:04.667Z,31.05
2022-12-25T09:10:31.464Z,55.42
2022-12-25T09:12:58.343Z,44.40
2022-12-25T09:15:25.301Z,41.30
2022-12-25T09:17:52.106Z,36.80
2022-12-25T09:20:18.950Z,36.55
2022-12-25T09:22:45.718Z,37.90
2022-12-25T09:25:12.521Z,45.00
2022-12-25T09:27:39.396Z,42.58
2022-12-25T09:30:07.168Z,46.50
2022-12-25T09:32:33.911Z,51.08
2022-12-25T09:35:00.739Z,52.60
2022-12-25T09:37:28.516Z,55.28
2022-12-25T09:39:55.284Z,61.80
2022-12-25T09:42:28.588Z,55.28
2022-12-25T09:45:01.032Z,75.35
2022-12-25T09:47:29.715Z,62.42
2022-12-25T09:50:04.165Z,61.78
2022-12-25T09:52:35.285Z,66.50
2022-12-25T09:55:08.513Z,65.93
2022-12-25T09:57:35.422Z,68.93
2022-12-25T10:00:02.247Z,71.72
2022-12-25T10:02:48.379Z,62.08
2022-12-25T10:05:25.510Z,63.22
2022-12-25T10:08:13.777Z,62.97
2022-12-25T10:10:40.468Z,62.35
2022-12-25T10:13:25.998Z,79.22
2022-12-25T10:16:06.150Z,73.78
2022-12-25T10:18:51.662Z,65.32
2022-12-25T10:21:18.493Z,60.33
2022-12-25T10:23:59.211Z,64.78
2022-12-25T10:26:26.241Z,62.38
2022-12-25T10:28:57.608Z,65.38
2022-12-25T10:31:26.478Z,82.57
2022-12-25T10:33:53.715Z,76.68
2022-12-25T10:36:25.158Z,85.68
2022-12-25T10:38:52.223Z,78.78
2022-12-25T10:41:31.599Z,86.40
2022-12-25T10:43:58.447Z,81.82
2022-12-25T10:46:26.588Z,68.30
2022-12-25T10:48:57.543Z,67.72
2022-12-25T10:53:58.285Z,68.03
2022-12-25T10:56:25.068Z,75.72
2022-12-25T10:58:51.919Z,64.40
2022-12-25T11:01:18.726Z,61.25
2022-12-25T11:03:48.390Z,65.70
2022-12-25T11:06:25.900Z,68.10
2022-12-25T11:08:57.824Z,70.13
2022-12-25T11:11:24.749Z,65.30
2022-12-25T11:13:56.494Z,63.67
2022-12-25T11:16:37.757Z,68.93
2022-12-25T11:19:23.217Z,58.10
2022-12-25T11:21:51.630Z,58.15
2022-12-25T11:24:20.107Z,64.47
2022-12-25T11:26:48.824Z,65.82
2022-12-25T11:29:47.920Z,62.28
2022-12-25T11:32:21.468Z,55.65
2022-12-25T11:34:48.598Z,56.85
2022-12-25T11:37:22.291Z,57.72
2022-12-25T11:39:49.101Z,59.42
2022-12-25T11:42:22.803Z,60.97
2022-12-25T11:45:08.959Z,51.90
2022-12-25T11:47:56.941Z,50.08
2022-12-25T11:50:51.828Z,55.53
2022-12-25T11:53:46.879Z,55.58
2022-12-25T11:56:16.976Z,53.35
2022-12-25T11:58:54.361Z,50.97
2022-12-25T12:01:39.296Z,65.38
2022-12-25T12:04:16.546Z,57.50
2022-12-25T12:07:01.939Z,59.83
2022-12-25T12:09:37.939Z,55.72
2022-12-25T12:12:29.561Z,62.42
2022-12-25T12:15:36.142Z,71.38
2022-12-25T12:18:30.141Z,90.10
2022-12-25T12:21:18.774Z,93.25
2022-12-25T12:24:07.120Z,111.07
2022-12-25T12:26:37.931Z,61.70
2022-12-25T12:32:00.277Z,65.43
2022-12-25T12:34:28.039Z,60.60
2022-12-25T12:37:24.594Z,96.05
2022-12-25T12:39:53.473Z,70.28
2022-12-25T12:42:28.212Z,74.00
2022-12-25T12:44:55.939Z,67.43
2022-12-25T12:47:29.612Z,73.07
2022-12-25T12:50:00.589Z,68.38
2022-12-25T12:52:37.805Z,63.83
2022-12-25T12:55:13.068Z,67.03
2022-12-25T12:57:40.473Z,58.65
2022-12-25T13:00:10.476Z,62.10
2022-12-25T13:03:01.942Z,54.15
2022-12-25T13:05:50.352Z,54.33
2022-12-25T13:08:23.052Z,64.63
2022-12-25T13:11:10.305Z,56.65
2022-12-25T13:13:39.433Z,63.63
2022-12-25T13:16:06.956Z,68.93
2022-12-25T13:18:33.969Z,66.45
2022-12-25T13:21:02.192Z,62.92
2022-12-25T13:23:32.885Z,61.60
2022-12-25T13:26:04.975Z,71.57
2022-12-25T13:28:31.788Z,66.60
2022-12-25T13:31:11.298Z,64.03
2022-12-25T13:33:38.111Z,61.05
2022-12-25T13:36:09.741Z,76.28
2022-12-25T13:38:36.525Z,64.90
2022-12-25T13:41:22.090Z,67.18
2022-12-25T13:43:48.904Z,66.07
2022-12-25T13:46:16.042Z,67.97
2022-12-25T13:48:43.146Z,66.53
2022-12-25T13:51:14.768Z,85.30
2022-12-25T13:53:41.565Z,85.80
2022-12-25T13:56:12.993Z,85.03
2022-12-25T13:58:39.777Z,82.05
2022-12-25T14:01:06.735Z,83.78
2022-12-25T14:03:43.055Z,86.43
2022-12-25T14:06:32.514Z,79.78
2022-12-25T14:08:59.338Z,81.93
2022-12-25T14:11:27.345Z,84.75
2022-12-25T14:14:02.384Z,89.43
2022-12-25T14:16:29.175Z,88.47
2022-12-25T14:19:01.146Z,93.50
2022-12-25T14:21:33.386Z,80.28
2022-12-25T14:24:00.214Z,72.65
2022-12-25T14:26:32.024Z,75.30
2022-12-25T14:29:17.589Z,75.80
2022-12-25T14:31:46.232Z,81.55
2022-12-25T14:34:21.831Z,76.00
2022-12-25T14:36:48.739Z,79.50
2022-12-25T14:39:37.162Z,78.32
2022-12-25T14:42:19.818Z,76.25
2022-12-25T14:45:18.746Z,84.35
2022-12-25T14:47:55.953Z,92.05
2022-12-25T14:50:39.731Z,107.10
2022-12-25T14:53:16.843Z,101.90
2022-12-25T14:55:47.301Z,121.60
2022-12-25T14:58:25.974Z,141.52
2022-12-25T15:00:58.062Z,159.18
2022-12-25T15:03:31.338Z,162.30
2022-12-25T15:06:05.037Z,158.68
2022-12-25T15:08:32.480Z,161.88
2022-12-25T15:11:01.567Z,207.95
2022-12-25T15:13:28.994Z,200.48
2022-12-25T15:16:02.930Z,190.00
2022-12-25T15:18:36.957Z,186.18
2022-12-25T15:21:04.082Z,223.82
2022-12-25T15:23:30.869Z,205.32
2022-12-25T15:25:57.621Z,221.75
2022-12-25T15:28:24.388Z,245.93
2022-12-25T15:30:51.208Z,231.48
2022-12-25T15:33:18.749Z,211.45
2022-12-25T15:35:45.724Z,233.85
2022-12-25T15:38:12.960Z,210.38
2022-12-25T15:40:40.160Z,215.15
2022-12-25T15:43:14.504Z,203.52
2022-12-25T15:45:49.229Z,192.50
2022-12-25T15:48:16.037Z,188.93
2022-12-25T15:50:44.210Z,194.93
2022-12-25T15:53:11.239Z,194.13
2022-12-25T15:55:38.473Z,200.20
2022-12-25T15:58:05.181Z,191.82
2022-12-25T16:00:32.111Z,186.18
2022-12-25T16:02:59.218Z,193.88
2022-12-25T16:05:26.636Z,183.30
2022-12-25T16:07:53.419Z,188.98
2022-12-25T16:10:20.214Z,193.82
2022-12-25T16:12:47.221Z,199.68
2022-12-25T16:15:14.715Z,190.38
2022-12-25T16:17:41.505Z,180.85
2022-12-25T16:20:08.669Z,190.32
2022-12-25T16:22:39.946Z,200.82
2022-12-25T16:25:17.689Z,190.43
2022-12-25T16:27:44.568Z,193.90
2022-12-25T16:30:12.909Z,199.75
2022-12-25T16:32:39.969Z,193.40
2022-12-25T16:35:07.072Z,198.05
2022-12-25T16:37:34.811Z,184.02
2022-12-25T16:40:01.942Z,181.30
2022-12-25T16:42:28.696Z,201.45
2022-12-25T16:44:55.514Z,197.57
2022-12-25T16:47:22.367Z,218.30
2022-12-25T16:49:49.272Z,216.45
2022-12-25T16:52:16.060Z,206.38
2022-12-25T16:54:44.629Z,210.30
2022-12-25T16:57:11.391Z,209.80
2022-12-25T16:59:38.238Z,458.15
2022-12-25T17:02:05.167Z,323.40
2022-12-25T17:04:31.968Z,234.68
2022-12-25T17:06:58.864Z,344.73
2022-12-25T17:09:25.671Z,273.23
2022-12-25T17:11:52.489Z,295.45
2022-12-25T17:14:19.330Z,268.02
2022-12-25T17:16:46.196Z,244.80
2022-12-25T17:19:19.412Z,307.05
2022-12-25T17:21:46.408Z,295.70
2022-12-25T17:24:13.654Z,236.02
2022-12-25T17:26:41.574Z,263.20
2022-12-25T17:29:08.546Z,248.65
2022-12-25T17:31:35.371Z,252.63
2022-12-25T17:34:02.666Z,260.45
2022-12-25T17:36:29.469Z,265.50
2022-12-25T17:38:56.379Z,270.98
2022-12-25T17:41:23.235Z,264.27
2022-12-25T17:43:50.010Z,258.52
2022-12-25T17:46:18.541Z,258.20
2022-12-25T17:48:45.629Z,274.35
2022-12-25T17:51:13.882Z,276.55
2022-12-25T17:53:42.956Z,269.08
2022-12-25T17:56:10.317Z,341.17
2022-12-25T17:58:37.625Z,372.98
2022-12-25T18:01:08.985Z,403.13
2022-12-25T18:03:36.738Z,434.65
2022-12-25T18:06:04.685Z,411.67
2022-12-25T18:08:38.686Z,432.20
2022-12-25T18:11:08.219Z,415.58
2022-12-25T18:13:35.098Z,408.80
2022-12-25T18:16:05.813Z,349.73
2022-12-25T18:18:32.794Z,365.20
2022-12-25T18:20:59.751Z,329.38
2022-12-25T18:23:26.476Z,341.25
2022-12-25T18:25:53.408Z,424.42
2022-12-25T18:28:20.365Z,386.10
2022-12-25T18:30:47.268Z,335.13
2022-12-25T18:33:14.344Z,426.67
2022-12-25T18:35:42.207Z,389.70
2022-12-25T18:38:09.759Z,320.85
2022-12-25T18:40:43.385Z,307.35
2022-12-25T18:43:10.647Z,320.17
2022-12-25T18:45:37.638Z,290.08
2022-12-25T18:48:06.237Z,291.10
2022-12-25T18:50:37.309Z,251.80
2022-12-25T18:53:04.286Z,253.80
2022-12-25T18:55:31.425Z,259.35
2022-12-25T18:57:58.175Z,274.58
2022-12-25T19:00:25.091Z,285.98
2022-12-25T19:02:57.223Z,286.80
2022-12-25T19:05:24.246Z,265.35
2022-12-25T19:07:51.120Z,249.63
2022-12-25T19:10:17.886Z,239.75
2022-12-25T19:12:44.752Z,239.38
2022-12-25T19:15:11.621Z,264.40
2022-12-25T19:17:38.537Z,253.57
2022-12-25T19:20:06.159Z,251.55
2022-12-25T19:22:33.238Z,231.55
2022-12-25T19:25:00.158Z,221.90
2022-12-25T19:27:27.058Z,228.77
2022-12-25T19:29:53.804Z,233.50
2022-12-25T19:32:20.535Z,229.45
2022-12-25T19:34:47.341Z,230.23
2022-12-25T19:37:15.085Z,222.10
2022-12-25T19:39:46.516Z,222.90
2022-12-25T19:42:16.783Z,214.43
2022-12-25T19:44:43.719Z,216.38
2022-12-25T19:47:10.858Z,242.35
2022-12-25T19:49:37.605Z,226.35
2022-12-25T19:52:04.617Z,230.57
2022-12-25T19:54:31.464Z,226.52
2022-12-25T19:56:58.296Z,207.00
2022-12-25T19:59:25.035Z,231.82
2022-12-25T20:01:52.100Z,203.30
2022-12-25T20:04:19.055Z,208.82
2022-12-25T20:06:45.867Z,214.55
2022-12-25T20:09:14.638Z,210.90
2022-12-25T20:11:41.559Z,252.13
2022-12-25T20:14:08.499Z,351.33
2022-12-25T20:16:38.632Z,342.33
2022-12-25T20:19:05.547Z,375.75
2022-12-25T20:21:32.289Z,439.08
2022-12-25T20:23:59.089Z,448.92
2022-12-25T20:26:27.819Z,395.05
2022-12-25T20:28:54.624Z,388.40
2022-12-25T20:31:24.203Z,340.25
2022-12-25T20:33:51.102Z,402.98
2022-12-25T20:36:18.929Z,424.75
2022-12-25T20:38:45.759Z,402.27
2022-12-25T20:41:30.435Z,362.75
2022-12-25T20:43:57.443Z,355.50
2022-12-25T20:46:25.126Z,316.65
2022-12-25T20:48:52.872Z,280.80
2022-12-25T20:51:21.942Z,309.67
2022-12-25T20:53:48.896Z,318.42
2022-12-25T20:56:16.896Z,341.95
2022-12-25T20:58:43.760Z,324.63
2022-12-25T21:01:12.499Z,308.33
2022-12-25T21:03:39.526Z,284.15
2022-12-25T21:06:06.844Z,280.63
2022-12-25T21:08:33.817Z,268.00
2022-12-25T21:11:01.019Z,287.70
2022-12-25T21:13:42.941Z,302.08
2022-12-25T21:16:11.730Z,290.15
2022-12-25T21:18:38.829Z,289.00
2022-12-25T21:21:07.608Z,322.08
2022-12-25T21:23:35.546Z,304.98
2022-12-25T21:26:25.261Z,262.55
2022-12-25T21:28:53.745Z,276.92
2022-12-25T21:31:20.967Z,250.95
2022-12-25T21:33:54.377Z,270.80
2022-12-25T21:36:41.576Z,270.08
2022-12-25T21:39:08.600Z,266.60
2022-12-25T21:41:36.749Z,262.25
2022-12-25T21:44:03.856Z,263.05
2022-12-25T21:46:30.703Z,256.67
2022-12-25T21:48:57.992Z,284.98
2022-12-25T21:51:50.656Z,284.83
2022-12-25T21:54:18.367Z,272.83
2022-12-25T21:56:45.857Z,266.85
2022-12-25T21:59:22.022Z,269.35
2022-12-25T22:01:49.874Z,272.83
2022-12-25T22:04:17.451Z,283.85
2022-12-25T22:07:03.015Z,279.48
2022-12-25T22:09:30.029Z,289.30
2022-12-25T22:12:15.576Z,296.98
2022-12-25T22:14:55.004Z,303.33
2022-12-25T22:17:42.200Z,296.85
2022-12-25T22:20:11.375Z,292.30
2022-12-25T22:22:38.239Z,307.40
2022-12-25T22:25:05.787Z,296.13
2022-12-25T22:27:33.825Z,305.10
2022-12-25T22:30:00.719Z,286.35
2022-12-25T22:32:28.243Z,287.23
2022-12-25T22:34:55.109Z,292.10
2022-12-25T22:37:22.337Z,302.08
2022-12-25T22:39:49.166Z,329.27
2022-12-25T22:42:16.024Z,302.67
2022-12-25T22:44:42.844Z,294.45
2022-12-25T22:47:09.731Z,318.98
2022-12-25T22:49:36.469Z,310.63
2022-12-25T22:52:03.484Z,307.90
2022-12-25T22:54:31.399Z,306.63
2022-12-25T22:56:58.565Z,285.05
2022-12-25T22:59:25.550Z,218.70
2022-12-25T23:01:52.395Z,202.68
2022-12-25T23:04:19.538Z,180.48
2022-12-25T23:06:46.651Z,195.02
2022-12-25T23:09:20.459Z,180.40
2022-12-25T23:11:51.037Z,185.85
2022-12-25T23:14:36.540Z,157.23
2022-12-25T23:17:03.359Z,196.38
2022-12-25T23:19:48.603Z,151.50
2022-12-25T23:22:34.142Z,199.10
2022-12-25T23:25:19.657Z,176.48
2022-12-25T23:27:46.500Z,165.90
2022-12-25T23:30:14.802Z,121.03
2022-12-25T23:32:41.993Z,131.65
2022-12-25T23:35:08.985Z,128.65
2022-12-25T23:37:35.771Z,128.32
2022-12-25T23:40:02.597Z,126.10
2022-12-25T23:42:29.458Z,119.07
2022-12-25T23:44:56.302Z,103.30
2022-12-25T23:47:23.099Z,112.82
2022-12-25T23:49:49.891Z,111.30
2022-12-25T23:52:16.721Z,114.10
2022-12-25T23:54:43.497Z,91.07
2022-12-25T23:57:10.336Z,94.88
2022-12-25T23:59:37.052Z,111.93
